sensor_id;sensor_type;location;lat;lon;timestamp;P1;durP1;ratioP1;P2;durP2;ratioP2
76900;SDS011;65859;43.020;25.096;2023-02-02T00:00:13;29.58;;;16.75;;
76900;SDS011;65859;43.020;25.096;2023-02-02T00:02:40;49.85;;;25.50;;
76900;SDS011;65859;43.020;25.096;2023-02-02T00:05:06;36.60;;;19.98;;
76900;SDS011;65859;43.020;25.096;2023-02-02T00:07:33;28.73;;;16.17;;
76900;SDS011;65859;43.020;25.096;2023-02-02T00:10:00;31.85;;;15.93;;
76900;SDS011;65859;43.020;25.096;2023-02-02T00:12:26;21.05;;;11.57;;
76900;SDS011;65859;43.020;25.096;2023-02-02T00:14:52;26.60;;;13.93;;
76900;SDS011;65859;43.020;25.096;2023-02-02T00:17:19;31.52;;;16.48;;
76900;SDS011;65859;43.020;25.096;2023-02-02T00:19:47;29.30;;;15.35;;
76900;SDS011;65859;43.020;25.096;2023-02-02T00:22:13;37.53;;;18.67;;
76900;SDS011;65859;43.020;25.096;2023-02-02T00:24:41;27.08;;;14.30;;
76900;SDS011;65859;43.020;25.096;2023-02-02T00:27:07;20.10;;;11.20;;
76900;SDS011;65859;43.020;25.096;2023-02-02T00:29:33;23.50;;;10.18;;
76900;SDS011;65859;43.020;25.096;2023-02-02T00:32:00;31.15;;;14.15;;
76900;SDS011;65859;43.020;25.096;2023-02-02T00:34:26;25.23;;;10.73;;
76900;SDS011;65859;43.020;25.096;2023-02-02T00:36:53;26.95;;;13.25;;
76900;SDS011;65859;43.020;25.096;2023-02-02T00:39:20;14.23;;;8.13;;
76900;SDS011;65859;43.020;25.096;2023-02-02T00:41:50;23.85;;;12.20;;
76900;SDS011;65859;43.020;25.096;2023-02-02T00:44:16;25.90;;;12.48;;
76900;SDS011;65859;43.020;25.096;2023-02-02T00:47:01;18.92;;;10.27;;
76900;SDS011;65859;43.020;25.096;2023-02-02T00:49:28;22.35;;;10.88;;
76900;SDS011;65859;43.020;25.096;2023-02-02T00:51:55;13.77;;;7.22;;
76900;SDS011;65859;43.020;25.096;2023-02-02T00:54:23;9.10;;;5.32;;
76900;SDS011;65859;43.020;25.096;2023-02-02T00:56:49;17.88;;;9.05;;
76900;SDS011;65859;43.020;25.096;2023-02-02T00:59:15;8.13;;;4.47;;
76900;SDS011;65859;43.020;25.096;2023-02-02T01:01:42;11.57;;;5.88;;
76900;SDS011;65859;43.020;25.096;2023-02-02T01:04:08;6.43;;;3.67;;
76900;SDS011;65859;43.020;25.096;2023-02-02T01:06:35;5.28;;;2.78;;
76900;SDS011;65859;43.020;25.096;2023-02-02T01:09:01;5.93;;;2.70;;
76900;SDS011;65859;43.020;25.096;2023-02-02T01:11:28;6.40;;;3.30;;
76900;SDS011;65859;43.020;25.096;2023-02-02T01:13:57;3.38;;;2.40;;
76900;SDS011;65859;43.020;25.096;2023-02-02T01:16:23;5.97;;;2.97;;
76900;SDS011;65859;43.020;25.096;2023-02-02T01:18:50;5.53;;;3.17;;
76900;SDS011;65859;43.020;25.096;2023-02-02T01:21:17;4.43;;;2.70;;
76900;SDS011;65859;43.020;25.096;2023-02-02T01:23:45;6.43;;;2.95;;
76900;SDS011;65859;43.020;25.096;2023-02-02T01:26:12;5.30;;;2.70;;
76900;SDS011;65859;43.020;25.096;2023-02-02T01:28:39;12.07;;;6.85;;
76900;SDS011;65859;43.020;25.096;2023-02-02T01:31:07;11.35;;;5.80;;
76900;SDS011;65859;43.020;25.096;2023-02-02T01:33:36;17.63;;;8.10;;
76900;SDS011;65859;43.020;25.096;2023-02-02T01:36:04;26.70;;;10.18;;
76900;SDS011;65859;43.020;25.096;2023-02-02T01:38:35;14.80;;;8.02;;
76900;SDS011;65859;43.020;25.096;2023-02-02T01:41:02;14.75;;;7.97;;
76900;SDS011;65859;43.020;25.096;2023-02-02T01:43:47;12.13;;;6.03;;
76900;SDS011;65859;43.020;25.096;2023-02-02T01:46:23;8.57;;;4.93;;
76900;SDS011;65859;43.020;25.096;2023-02-02T01:48:58;9.68;;;5.35;;
76900;SDS011;65859;43.020;25.096;2023-02-02T01:51:37;8.57;;;4.97;;
76900;SDS011;65859;43.020;25.096;2023-02-02T01:54:19;13.73;;;7.90;;
76900;SDS011;65859;43.020;25.096;2023-02-02T01:57:03;8.77;;;5.80;;
76900;SDS011;65859;43.020;25.096;2023-02-02T01:59:38;10.75;;;6.70;;
76900;SDS011;65859;43.020;25.096;2023-02-02T02:02:06;7.35;;;3.80;;
76900;SDS011;65859;43.020;25.096;2023-02-02T02:04:32;5.18;;;3.13;;
76900;SDS011;65859;43.020;25.096;2023-02-02T02:06:59;5.70;;;2.92;;
76900;SDS011;65859;43.020;25.096;2023-02-02T02:09:27;5.63;;;3.00;;
76900;SDS011;65859;43.020;25.096;2023-02-02T02:11:53;4.03;;;2.80;;
76900;SDS011;65859;43.020;25.096;2023-02-02T02:14:20;5.53;;;3.70;;
76900;SDS011;65859;43.020;25.096;2023-02-02T02:42:44;3.63;;;2.53;;
76900;SDS011;65859;43.020;25.096;2023-02-02T02:45:16;5.07;;;2.75;;
76900;SDS011;65859;43.020;25.096;2023-02-02T02:47:44;5.28;;;3.00;;
76900;SDS011;65859;43.020;25.096;2023-02-02T02:50:12;5.38;;;3.65;;
76900;SDS011;65859;43.020;25.096;2023-02-02T02:52:38;5.65;;;3.70;;
76900;SDS011;65859;43.020;25.096;2023-02-02T02:55:05;5.57;;;3.25;;
76900;SDS011;65859;43.020;25.096;2023-02-02T02:57:51;4.38;;;2.40;;
76900;SDS011;65859;43.020;25.096;2023-02-02T03:06:07;4.10;;;2.97;;
76900;SDS011;65859;43.020;25.096;2023-02-02T03:09:03;3.72;;;2.30;;
76900;SDS011;65859;43.020;25.096;2023-02-02T03:11:40;5.32;;;2.60;;
76900;SDS011;65859;43.020;25.096;2023-02-02T03:14:07;4.63;;;2.33;;
76900;SDS011;65859;43.020;25.096;2023-02-02T03:16:35;3.20;;;2.30;;
76900;SDS011;65859;43.020;25.096;2023-02-02T03:19:02;3.40;;;2.30;;
76900;SDS011;65859;43.020;25.096;2023-02-02T03:21:30;3.17;;;1.95;;
76900;SDS011;65859;43.020;25.096;2023-02-02T03:23:57;4.50;;;2.25;;
76900;SDS011;65859;43.020;25.096;2023-02-02T03:26:24;5.88;;;3.03;;
76900;SDS011;65859;43.020;25.096;2023-02-02T03:28:52;3.80;;;2.88;;
76900;SDS011;65859;43.020;25.096;2023-02-02T03:31:21;6.30;;;3.40;;
76900;SDS011;65859;43.020;25.096;2023-02-02T03:33:51;2.78;;;2.10;;
76900;SDS011;65859;43.020;25.096;2023-02-02T03:36:17;5.32;;;2.70;;
76900;SDS011;65859;43.020;25.096;2023-02-02T03:38:44;7.40;;;3.65;;
76900;SDS011;65859;43.020;25.096;2023-02-02T03:41:10;6.30;;;3.35;;
76900;SDS011;65859;43.020;25.096;2023-02-02T03:43:37;5.05;;;3.30;;
76900;SDS011;65859;43.020;25.096;2023-02-02T03:46:04;6.43;;;3.33;;
76900;SDS011;65859;43.020;25.096;2023-02-02T03:48:33;5.07;;;3.35;;
76900;SDS011;65859;43.020;25.096;2023-02-02T03:51:04;8.05;;;4.95;;
76900;SDS011;65859;43.020;25.096;2023-02-02T03:53:35;8.18;;;3.60;;
76900;SDS011;65859;43.020;25.096;2023-02-02T03:56:03;6.72;;;4.45;;
76900;SDS011;65859;43.020;25.096;2023-02-02T03:58:29;9.50;;;4.60;;
76900;SDS011;65859;43.020;25.096;2023-02-02T04:01:04;8.70;;;4.30;;
76900;SDS011;65859;43.020;25.096;2023-02-02T04:03:32;9.70;;;5.07;;
76900;SDS011;65859;43.020;25.096;2023-02-02T04:05:59;21.48;;;9.98;;
76900;SDS011;65859;43.020;25.096;2023-02-02T04:08:25;20.73;;;8.68;;
76900;SDS011;65859;43.020;25.096;2023-02-02T04:10:52;35.40;;;15.82;;
76900;SDS011;65859;43.020;25.096;2023-02-02T04:13:20;33.88;;;16.33;;
76900;SDS011;65859;43.020;25.096;2023-02-02T04:15:46;14.95;;;9.10;;
76900;SDS011;65859;43.020;25.096;2023-02-02T04:18:12;21.25;;;11.70;;
76900;SDS011;65859;43.020;25.096;2023-02-02T04:20:39;18.55;;;10.98;;
76900;SDS011;65859;43.020;25.096;2023-02-02T04:23:05;11.23;;;6.35;;
76900;SDS011;65859;43.020;25.096;2023-02-02T04:25:32;11.05;;;5.75;;
76900;SDS011;65859;43.020;25.096;2023-02-02T04:27:58;9.13;;;4.88;;
76900;SDS011;65859;43.020;25.096;2023-02-02T04:30:24;4.40;;;3.40;;
76900;SDS011;65859;43.020;25.096;2023-02-02T04:32:51;7.07;;;3.78;;
76900;SDS011;65859;43.020;25.096;2023-02-02T04:35:17;11.02;;;5.72;;
76900;SDS011;65859;43.020;25.096;2023-02-02T04:37:43;14.40;;;7.13;;
76900;SDS011;65859;43.020;25.096;2023-02-02T04:40:10;11.50;;;5.90;;
76900;SDS011;65859;43.020;25.096;2023-02-02T04:42:37;11.93;;;7.13;;
76900;SDS011;65859;43.020;25.096;2023-02-02T04:45:05;11.73;;;6.97;;
76900;SDS011;65859;43.020;25.096;2023-02-02T04:47:32;9.73;;;6.07;;
76900;SDS011;65859;43.020;25.096;2023-02-02T04:49:58;16.20;;;8.57;;
76900;SDS011;65859;43.020;25.096;2023-02-02T04:52:24;24.05;;;11.90;;
76900;SDS011;65859;43.020;25.096;2023-02-02T04:54:52;56.08;;;26.23;;
76900;SDS011;65859;43.020;25.096;2023-02-02T04:57:19;48.58;;;21.75;;
76900;SDS011;65859;43.020;25.096;2023-02-02T04:59:45;33.22;;;19.90;;
76900;SDS011;65859;43.020;25.096;2023-02-02T05:02:11;21.95;;;13.93;;
76900;SDS011;65859;43.020;25.096;2023-02-02T05:04:38;15.85;;;11.30;;
76900;SDS011;65859;43.020;25.096;2023-02-02T05:07:04;15.93;;;11.57;;
76900;SDS011;65859;43.020;25.096;2023-02-02T05:09:31;13.65;;;9.95;;
76900;SDS011;65859;43.020;25.096;2023-02-02T05:11:57;21.13;;;12.95;;
76900;SDS011;65859;43.020;25.096;2023-02-02T05:14:23;21.30;;;14.05;;
76900;SDS011;65859;43.020;25.096;2023-02-02T05:16:51;55.33;;;31.17;;
76900;SDS011;65859;43.020;25.096;2023-02-02T05:19:18;51.47;;;33.58;;
76900;SDS011;65859;43.020;25.096;2023-02-02T05:21:44;34.95;;;25.90;;
76900;SDS011;65859;43.020;25.096;2023-02-02T05:24:13;27.67;;;19.50;;
76900;SDS011;65859;43.020;25.096;2023-02-02T05:26:39;18.58;;;12.25;;
76900;SDS011;65859;43.020;25.096;2023-02-02T05:29:06;16.58;;;10.63;;
76900;SDS011;65859;43.020;25.096;2023-02-02T05:31:33;10.55;;;7.43;;
76900;SDS011;65859;43.020;25.096;2023-02-02T05:34:00;11.38;;;6.68;;
76900;SDS011;65859;43.020;25.096;2023-02-02T05:36:26;15.60;;;8.82;;
76900;SDS011;65859;43.020;25.096;2023-02-02T05:38:53;11.13;;;6.95;;
76900;SDS011;65859;43.020;25.096;2023-02-02T05:41:19;14.38;;;6.85;;
76900;SDS011;65859;43.020;25.096;2023-02-02T05:43:46;17.63;;;8.98;;
76900;SDS011;65859;43.020;25.096;2023-02-02T05:46:12;11.05;;;6.65;;
76900;SDS011;65859;43.020;25.096;2023-02-02T05:48:40;22.38;;;11.90;;
76900;SDS011;65859;43.020;25.096;2023-02-02T05:53:41;28.20;;;16.35;;
76900;SDS011;65859;43.020;25.096;2023-02-02T05:56:09;12.57;;;7.13;;
76900;SDS011;65859;43.020;25.096;2023-02-02T05:58:36;12.90;;;6.97;;
76900;SDS011;65859;43.020;25.096;2023-02-02T06:01:02;11.68;;;5.22;;
76900;SDS011;65859;43.020;25.096;2023-02-02T06:03:29;8.20;;;5.35;;
76900;SDS011;65859;43.020;25.096;2023-02-02T06:05:55;4.57;;;2.78;;
76900;SDS011;65859;43.020;25.096;2023-02-02T06:08:22;4.07;;;2.70;;
76900;SDS011;65859;43.020;25.096;2023-02-02T06:10:48;9.82;;;4.03;;
76900;SDS011;65859;43.020;25.096;2023-02-02T06:13:15;8.93;;;4.38;;
76900;SDS011;65859;43.020;25.096;2023-02-02T06:15:41;17.48;;;9.05;;
76900;SDS011;65859;43.020;25.096;2023-02-02T06:18:08;5.60;;;3.33;;
76900;SDS011;65859;43.020;25.096;2023-02-02T06:20:35;7.28;;;3.97;;
76900;SDS011;65859;43.020;25.096;2023-02-02T06:23:02;7.43;;;3.15;;
76900;SDS011;65859;43.020;25.096;2023-02-02T06:25:29;9.80;;;5.22;;
76900;SDS011;65859;43.020;25.096;2023-02-02T06:27:57;5.40;;;3.40;;
76900;SDS011;65859;43.020;25.096;2023-02-02T06:30:24;6.20;;;3.30;;
76900;SDS011;65859;43.020;25.096;2023-02-02T06:32:51;9.13;;;4.28;;
76900;SDS011;65859;43.020;25.096;2023-02-02T06:35:18;11.85;;;8.35;;
76900;SDS011;65859;43.020;25.096;2023-02-02T06:37:44;14.07;;;8.90;;
76900;SDS011;65859;43.020;25.096;2023-02-02T06:40:11;13.55;;;7.35;;
76900;SDS011;65859;43.020;25.096;2023-02-02T06:42:38;7.28;;;5.07;;
76900;SDS011;65859;43.020;25.096;2023-02-02T06:45:05;10.93;;;7.55;;
76900;SDS011;65859;43.020;25.096;2023-02-02T06:47:32;13.35;;;6.65;;
76900;SDS011;65859;43.020;25.096;2023-02-02T06:49:58;17.35;;;10.27;;
76900;SDS011;65859;43.020;25.096;2023-02-02T06:52:27;15.30;;;6.93;;
76900;SDS011;65859;43.020;25.096;2023-02-02T06:54:54;12.77;;;6.60;;
76900;SDS011;65859;43.020;25.096;2023-02-02T06:57:21;22.17;;;18.40;;
76900;SDS011;65859;43.020;25.096;2023-02-02T06:59:47;25.85;;;21.08;;
76900;SDS011;65859;43.020;25.096;2023-02-02T07:02:14;19.10;;;12.65;;
76900;SDS011;65859;43.020;25.096;2023-02-02T07:04:41;21.38;;;13.65;;
76900;SDS011;65859;43.020;25.096;2023-02-02T07:07:07;35.85;;;24.27;;
76900;SDS011;65859;43.020;25.096;2023-02-02T07:09:34;37.33;;;27.88;;
76900;SDS011;65859;43.020;25.096;2023-02-02T07:12:00;23.38;;;17.27;;
76900;SDS011;65859;43.020;25.096;2023-02-02T07:14:26;18.80;;;11.55;;
76900;SDS011;65859;43.020;25.096;2023-02-02T07:16:53;13.73;;;7.50;;
76900;SDS011;65859;43.020;25.096;2023-02-02T07:19:19;16.73;;;12.20;;
76900;SDS011;65859;43.020;25.096;2023-02-02T07:21:45;12.38;;;8.77;;
76900;SDS011;65859;43.020;25.096;2023-02-02T07:24:13;16.80;;;10.05;;
76900;SDS011;65859;43.020;25.096;2023-02-02T07:26:39;8.07;;;3.65;;
76900;SDS011;65859;43.020;25.096;2023-02-02T07:29:06;9.13;;;5.07;;
76900;SDS011;65859;43.020;25.096;2023-02-02T07:31:36;4.57;;;3.47;;
76900;SDS011;65859;43.020;25.096;2023-02-02T07:34:02;11.07;;;7.57;;
76900;SDS011;65859;43.020;25.096;2023-02-02T07:36:29;26.67;;;18.70;;
76900;SDS011;65859;43.020;25.096;2023-02-02T07:38:56;14.48;;;8.27;;
76900;SDS011;65859;43.020;25.096;2023-02-02T07:41:22;45.65;;;34.95;;
76900;SDS011;65859;43.020;25.096;2023-02-02T07:43:49;7.70;;;4.82;;
76900;SDS011;65859;43.020;25.096;2023-02-02T07:46:16;3.35;;;2.50;;
76900;SDS011;65859;43.020;25.096;2023-02-02T07:48:43;3.72;;;2.30;;
76900;SDS011;65859;43.020;25.096;2023-02-02T07:51:11;4.97;;;3.58;;
76900;SDS011;65859;43.020;25.096;2023-02-02T07:53:45;48.70;;;28.45;;
76900;SDS011;65859;43.020;25.096;2023-02-02T07:56:22;35.05;;;20.48;;
76900;SDS011;65859;43.020;25.096;2023-02-02T07:58:53;29.23;;;21.02;;
76900;SDS011;65859;43.020;25.096;2023-02-02T08:01:20;12.38;;;7.35;;
76900;SDS011;65859;43.020;25.096;2023-02-02T08:03:48;7.90;;;5.57;;
76900;SDS011;65859;43.020;25.096;2023-02-02T08:06:17;10.07;;;5.82;;
76900;SDS011;65859;43.020;25.096;2023-02-02T08:08:44;12.98;;;9.00;;
76900;SDS011;65859;43.020;25.096;2023-02-02T08:11:11;5.53;;;4.63;;
76900;SDS011;65859;43.020;25.096;2023-02-02T08:13:40;9.50;;;4.97;;
76900;SDS011;65859;43.020;25.096;2023-02-02T08:16:07;4.50;;;2.88;;
76900;SDS011;65859;43.020;25.096;2023-02-02T08:18:35;6.00;;;2.88;;
76900;SDS011;65859;43.020;25.096;2023-02-02T08:21:03;8.23;;;3.70;;
76900;SDS011;65859;43.020;25.096;2023-02-02T08:23:32;10.82;;;5.68;;
76900;SDS011;65859;43.020;25.096;2023-02-02T08:26:04;15.30;;;6.88;;
76900;SDS011;65859;43.020;25.096;2023-02-02T08:28:32;6.63;;;3.95;;
76900;SDS011;65859;43.020;25.096;2023-02-02T08:31:04;6.45;;;3.25;;
76900;SDS011;65859;43.020;25.096;2023-02-02T08:33:32;7.00;;;3.78;;
76900;SDS011;65859;43.020;25.096;2023-02-02T08:35:59;5.72;;;2.97;;
76900;SDS011;65859;43.020;25.096;2023-02-02T08:38:25;10.15;;;6.75;;
76900;SDS011;65859;43.020;25.096;2023-02-02T08:40:51;10.30;;;5.75;;
76900;SDS011;65859;43.020;25.096;2023-02-02T08:43:18;3.95;;;2.72;;
76900;SDS011;65859;43.020;25.096;2023-02-02T08:45:45;5.45;;;3.20;;
76900;SDS011;65859;43.020;25.096;2023-02-02T08:48:12;3.53;;;3.15;;
76900;SDS011;65859;43.020;25.096;2023-02-02T08:50:41;2.95;;;2.28;;
76900;SDS011;65859;43.020;25.096;2023-02-02T08:53:07;3.25;;;2.22;;
76900;SDS011;65859;43.020;25.096;2023-02-02T08:55:34;1.88;;;1.50;;
76900;SDS011;65859;43.020;25.096;2023-02-02T08:58:00;6.75;;;2.30;;
76900;SDS011;65859;43.020;25.096;2023-02-02T09:00:27;2.53;;;2.00;;
76900;SDS011;65859;43.020;25.096;2023-02-02T09:02:54;5.10;;;2.05;;
76900;SDS011;65859;43.020;25.096;2023-02-02T09:05:20;2.33;;;1.70;;
76900;SDS011;65859;43.020;25.096;2023-02-02T09:07:47;3.70;;;1.85;;
76900;SDS011;65859;43.020;25.096;2023-02-02T09:10:13;3.53;;;1.60;;
76900;SDS011;65859;43.020;25.096;2023-02-02T09:12:40;1.85;;;1.75;;
76900;SDS011;65859;43.020;25.096;2023-02-02T09:15:06;1.90;;;1.30;;
76900;SDS011;65859;43.020;25.096;2023-02-02T09:17:33;1.92;;;1.38;;
76900;SDS011;65859;43.020;25.096;2023-02-02T09:20:00;5.78;;;3.00;;
76900;SDS011;65859;43.020;25.096;2023-02-02T09:22:27;6.75;;;4.30;;
76900;SDS011;65859;43.020;25.096;2023-02-02T09:24:53;6.07;;;2.78;;
76900;SDS011;65859;43.020;25.096;2023-02-02T09:27:20;10.57;;;4.55;;
76900;SDS011;65859;43.020;25.096;2023-02-02T09:29:47;6.80;;;2.55;;
76900;SDS011;65859;43.020;25.096;2023-02-02T09:35:44;6.10;;;1.90;;
76900;SDS011;65859;43.020;25.096;2023-02-02T09:38:11;2.40;;;1.67;;
76900;SDS011;65859;43.020;25.096;2023-02-02T09:40:38;7.47;;;1.92;;
76900;SDS011;65859;43.020;25.096;2023-02-02T09:45:53;3.45;;;2.05;;
76900;SDS011;65859;43.020;25.096;2023-02-02T09:51:22;9.85;;;4.80;;
76900;SDS011;65859;43.020;25.096;2023-02-02T09:53:55;2.15;;;1.60;;
76900;SDS011;65859;43.020;25.096;2023-02-02T09:59:19;2.70;;;1.50;;
76900;SDS011;65859;43.020;25.096;2023-02-02T10:01:53;2.47;;;1.60;;
76900;SDS011;65859;43.020;25.096;2023-02-02T10:04:33;3.50;;;1.67;;
76900;SDS011;65859;43.020;25.096;2023-02-02T10:07:05;7.32;;;4.07;;
76900;SDS011;65859;43.020;25.096;2023-02-02T10:09:50;10.70;;;6.07;;
76900;SDS011;65859;43.020;25.096;2023-02-02T10:12:29;1.70;;;1.30;;
76900;SDS011;65859;43.020;25.096;2023-02-02T10:22:44;3.75;;;2.00;;
76900;SDS011;65859;43.020;25.096;2023-02-02T10:25:13;2.47;;;1.67;;
76900;SDS011;65859;43.020;25.096;2023-02-02T10:27:44;4.25;;;2.83;;
76900;SDS011;65859;43.020;25.096;2023-02-02T10:30:36;1.88;;;1.48;;
76900;SDS011;65859;43.020;25.096;2023-02-02T10:33:14;2.90;;;1.63;;
76900;SDS011;65859;43.020;25.096;2023-02-02T10:46:55;2.55;;;1.75;;
76900;SDS011;65859;43.020;25.096;2023-02-02T10:49:29;3.72;;;1.80;;
76900;SDS011;65859;43.020;25.096;2023-02-02T10:52:03;10.55;;;2.30;;
76900;SDS011;65859;43.020;25.096;2023-02-02T10:54:53;9.10;;;1.95;;
76900;SDS011;65859;43.020;25.096;2023-02-02T11:02:54;3.17;;;1.60;;
76900;SDS011;65859;43.020;25.096;2023-02-02T11:05:24;2.80;;;1.80;;
76900;SDS011;65859;43.020;25.096;2023-02-02T11:08:24;4.65;;;2.42;;
76900;SDS011;65859;43.020;25.096;2023-02-02T11:14:03;4.40;;;2.15;;
76900;SDS011;65859;43.020;25.096;2023-02-02T11:16:41;3.70;;;1.90;;
76900;SDS011;65859;43.020;25.096;2023-02-02T11:21:54;3.60;;;2.20;;
76900;SDS011;65859;43.020;25.096;2023-02-02T11:27:16;6.75;;;1.80;;
76900;SDS011;65859;43.020;25.096;2023-02-02T11:29:52;3.45;;;1.80;;
76900;SDS011;65859;43.020;25.096;2023-02-02T11:32:27;3.00;;;2.60;;
76900;SDS011;65859;43.020;25.096;2023-02-02T11:35:13;5.15;;;2.50;;
76900;SDS011;65859;43.020;25.096;2023-02-02T11:37:51;3.85;;;3.35;;
76900;SDS011;65859;43.020;25.096;2023-02-02T11:42:50;4.53;;;2.67;;
76900;SDS011;65859;43.020;25.096;2023-02-02T11:45:18;5.00;;;3.45;;
76900;SDS011;65859;43.020;25.096;2023-02-02T11:47:53;4.45;;;2.10;;
76900;SDS011;65859;43.020;25.096;2023-02-02T11:50:37;2.97;;;2.20;;
76900;SDS011;65859;43.020;25.096;2023-02-02T11:53:19;4.40;;;2.60;;
76900;SDS011;65859;43.020;25.096;2023-02-02T11:55:48;7.72;;;2.33;;
76900;SDS011;65859;43.020;25.096;2023-02-02T11:58:19;3.33;;;2.63;;
76900;SDS011;65859;43.020;25.096;2023-02-02T12:01:01;3.83;;;2.70;;
76900;SDS011;65859;43.020;25.096;2023-02-02T12:06:44;5.47;;;1.85;;
76900;SDS011;65859;43.020;25.096;2023-02-02T12:09:03;4.28;;;2.40;;
76900;SDS011;65859;43.020;25.096;2023-02-02T12:14:16;7.35;;;2.80;;
76900;SDS011;65859;43.020;25.096;2023-02-02T12:17:15;29.60;;;3.47;;
76900;SDS011;65859;43.020;25.096;2023-02-02T12:41:37;7.65;;;4.60;;
76900;SDS011;65859;43.020;25.096;2023-02-02T12:49:37;5.88;;;3.83;;
76900;SDS011;65859;43.020;25.096;2023-02-02T13:09:13;8.48;;;5.35;;
76900;SDS011;65859;43.020;25.096;2023-02-02T13:12:02;15.90;;;10.30;;
76900;SDS011;65859;43.020;25.096;2023-02-02T13:14:35;8.52;;;5.10;;
76900;SDS011;65859;43.020;25.096;2023-02-02T13:17:17;10.60;;;6.78;;
76900;SDS011;65859;43.020;25.096;2023-02-02T13:19:47;5.75;;;4.30;;
76900;SDS011;65859;43.020;25.096;2023-02-02T13:22:28;10.98;;;7.25;;
76900;SDS011;65859;43.020;25.096;2023-02-02T13:25:04;14.35;;;9.40;;
76900;SDS011;65859;43.020;25.096;2023-02-02T13:27:37;10.50;;;5.82;;
76900;SDS011;65859;43.020;25.096;2023-02-02T13:32:42;13.45;;;8.00;;
76900;SDS011;65859;43.020;25.096;2023-02-02T13:38:12;8.30;;;5.70;;
76900;SDS011;65859;43.020;25.096;2023-02-02T13:40:53;27.30;;;16.70;;
76900;SDS011;65859;43.020;25.096;2023-02-02T13:46:30;58.67;;;35.17;;
76900;SDS011;65859;43.020;25.096;2023-02-02T13:49:23;3.72;;;3.30;;
76900;SDS011;65859;43.020;25.096;2023-02-02T14:00:28;4.70;;;3.50;;
76900;SDS011;65859;43.020;25.096;2023-02-02T14:03:06;3.72;;;2.88;;
76900;SDS011;65859;43.020;25.096;2023-02-02T14:06:12;5.07;;;2.63;;
76900;SDS011;65859;43.020;25.096;2023-02-02T14:09:03;8.20;;;2.50;;
76900;SDS011;65859;43.020;25.096;2023-02-02T14:11:30;3.72;;;2.30;;
76900;SDS011;65859;43.020;25.096;2023-02-02T14:14:05;5.25;;;2.83;;
76900;SDS011;65859;43.020;25.096;2023-02-02T14:16:51;4.63;;;2.40;;
76900;SDS011;65859;43.020;25.096;2023-02-02T14:26:57;6.20;;;2.03;;
76900;SDS011;65859;43.020;25.096;2023-02-02T14:31:59;6.85;;;2.88;;
76900;SDS011;65859;43.020;25.096;2023-02-02T14:34:45;10.07;;;5.35;;
76900;SDS011;65859;43.020;25.096;2023-02-02T14:37:26;9.85;;;5.80;;
76900;SDS011;65859;43.020;25.096;2023-02-02T14:45:39;24.23;;;15.57;;
76900;SDS011;65859;43.020;25.096;2023-02-02T14:48:17;14.75;;;11.48;;
76900;SDS011;65859;43.020;25.096;2023-02-02T14:50:52;19.00;;;14.25;;
76900;SDS011;65859;43.020;25.096;2023-02-02T14:56:02;26.67;;;19.98;;
76900;SDS011;65859;43.020;25.096;2023-02-02T14:58:43;20.67;;;15.45;;
76900;SDS011;65859;43.020;25.096;2023-02-02T15:03:46;2.70;;;2.30;;
76900;SDS011;65859;43.020;25.096;2023-02-02T15:06:36;3.05;;;2.30;;
76900;SDS011;65859;43.020;25.096;2023-02-02T15:14:29;3.40;;;2.33;;
76900;SDS011;65859;43.020;25.096;2023-02-02T15:17:00;3.60;;;2.55;;
76900;SDS011;65859;43.020;25.096;2023-02-02T15:19:34;2.55;;;1.70;;
76900;SDS011;65859;43.020;25.096;2023-02-02T15:22:22;2.80;;;1.60;;
76900;SDS011;65859;43.020;25.096;2023-02-02T15:25:02;1.50;;;1.40;;
76900;SDS011;65859;43.020;25.096;2023-02-02T15:27:36;2.20;;;1.33;;
76900;SDS011;65859;43.020;25.096;2023-02-02T15:30:06;2.10;;;1.60;;
76900;SDS011;65859;43.020;25.096;2023-02-02T15:32:36;5.00;;;3.33;;
76900;SDS011;65859;43.020;25.096;2023-02-02T15:35:06;5.88;;;4.15;;
76900;SDS011;65859;43.020;25.096;2023-02-02T15:37:48;3.38;;;2.33;;
76900;SDS011;65859;43.020;25.096;2023-02-02T15:40:20;7.15;;;5.03;;
76900;SDS011;65859;43.020;25.096;2023-02-02T15:42:51;11.98;;;7.32;;
76900;SDS011;65859;43.020;25.096;2023-02-02T15:45:41;6.03;;;3.20;;
76900;SDS011;65859;43.020;25.096;2023-02-02T15:50:46;14.65;;;9.40;;
76900;SDS011;65859;43.020;25.096;2023-02-02T15:53:20;7.72;;;6.78;;
76900;SDS011;65859;43.020;25.096;2023-02-02T15:55:57;22.67;;;17.10;;
76900;SDS011;65859;43.020;25.096;2023-02-02T16:01:13;19.38;;;12.23;;
76900;SDS011;65859;43.020;25.096;2023-02-02T16:03:47;9.57;;;5.80;;
76900;SDS011;65859;43.020;25.096;2023-02-02T16:06:16;7.55;;;5.00;;
76900;SDS011;65859;43.020;25.096;2023-02-02T16:08:43;6.20;;;3.53;;
76900;SDS011;65859;43.020;25.096;2023-02-02T16:11:12;13.63;;;9.45;;
76900;SDS011;65859;43.020;25.096;2023-02-02T16:13:38;16.85;;;12.55;;
76900;SDS011;65859;43.020;25.096;2023-02-02T16:16:24;5.50;;;4.90;;
76900;SDS011;65859;43.020;25.096;2023-02-02T16:21:28;6.72;;;5.15;;
76900;SDS011;65859;43.020;25.096;2023-02-02T16:23:55;9.43;;;5.82;;
76900;SDS011;65859;43.020;25.096;2023-02-02T16:26:23;27.83;;;23.65;;
76900;SDS011;65859;43.020;25.096;2023-02-02T16:28:53;23.85;;;17.25;;
76900;SDS011;65859;43.020;25.096;2023-02-02T16:31:20;141.18;;;110.95;;
76900;SDS011;65859;43.020;25.096;2023-02-02T16:33:47;92.25;;;61.40;;
76900;SDS011;65859;43.020;25.096;2023-02-02T16:36:18;31.00;;;19.60;;
76900;SDS011;65859;43.020;25.096;2023-02-02T16:38:47;21.13;;;13.48;;
76900;SDS011;65859;43.020;25.096;2023-02-02T16:41:30;17.90;;;11.88;;
76900;SDS011;65859;43.020;25.096;2023-02-02T16:47:06;4.90;;;2.38;;
76900;SDS011;65859;43.020;25.096;2023-02-02T16:52:31;5.85;;;4.63;;
76900;SDS011;65859;43.020;25.096;2023-02-02T16:54:59;15.77;;;9.73;;
76900;SDS011;65859;43.020;25.096;2023-02-02T16:57:27;36.22;;;25.85;;
76900;SDS011;65859;43.020;25.096;2023-02-02T16:59:56;39.50;;;20.92;;
76900;SDS011;65859;43.020;25.096;2023-02-02T17:05:02;62.65;;;39.45;;
76900;SDS011;65859;43.020;25.096;2023-02-02T17:07:34;23.23;;;15.27;;
76900;SDS011;65859;43.020;25.096;2023-02-02T17:12:40;16.20;;;14.10;;
76900;SDS011;65859;43.020;25.096;2023-02-02T17:17:43;7.05;;;4.50;;
76900;SDS011;65859;43.020;25.096;2023-02-02T17:20:14;5.43;;;4.03;;
76900;SDS011;65859;43.020;25.096;2023-02-02T17:22:44;5.05;;;3.10;;
76900;SDS011;65859;43.020;25.096;2023-02-02T17:25:16;6.40;;;4.85;;
76900;SDS011;65859;43.020;25.096;2023-02-02T17:28:06;11.05;;;5.95;;
76900;SDS011;65859;43.020;25.096;2023-02-02T17:30:38;16.65;;;10.18;;
76900;SDS011;65859;43.020;25.096;2023-02-02T17:33:10;11.35;;;7.72;;
76900;SDS011;65859;43.020;25.096;2023-02-02T17:35:38;5.68;;;3.85;;
76900;SDS011;65859;43.020;25.096;2023-02-02T17:38:05;10.98;;;7.43;;
76900;SDS011;65859;43.020;25.096;2023-02-02T17:40:32;14.48;;;9.50;;
76900;SDS011;65859;43.020;25.096;2023-02-02T17:42:59;12.82;;;8.38;;
76900;SDS011;65859;43.020;25.096;2023-02-02T17:45:34;20.40;;;10.15;;
76900;SDS011;65859;43.020;25.096;2023-02-02T17:48:01;18.58;;;10.48;;
76900;SDS011;65859;43.020;25.096;2023-02-02T17:50:29;22.98;;;10.73;;
76900;SDS011;65859;43.020;25.096;2023-02-02T17:52:57;19.05;;;11.20;;
76900;SDS011;65859;43.020;25.096;2023-02-02T17:55:25;47.40;;;31.23;;
76900;SDS011;65859;43.020;25.096;2023-02-02T17:57:55;55.95;;;41.60;;
76900;SDS011;65859;43.020;25.096;2023-02-02T18:00:23;29.13;;;18.77;;